sensor_id;sensor_type;location;lat;lon;timestamp;P1;durP1;ratioP1;P2;durP2;ratioP2
3487;SDS011;38546;48.170;11.724;2022-07-29T00:01:22;2.90;;;2.30;;
3487;SDS011;38546;48.170;11.724;2022-07-29T00:04:11;4.20;;;2.20;;
3487;SDS011;38546;48.170;11.724;2022-07-29T00:07:01;2.87;;;2.67;;
3487;SDS011;38546;48.170;11.724;2022-07-29T00:09:52;4.00;;;2.53;;
3487;SDS011;38546;48.170;11.724;2022-07-29T00:12:42;2.53;;;2.30;;
3487;SDS011;38546;48.170;11.724;2022-07-29T00:15:31;2.37;;;2.17;;
3487;SDS011;38546;48.170;11.724;2022-07-29T00:18:20;4.40;;;2.40;;
3487;SDS011;38546;48.170;11.724;2022-07-29T00:21:10;2.33;;;2.13;;
3487;SDS011;38546;48.170;11.724;2022-07-29T00:23:59;2.83;;;2.63;;
3487;SDS011;38546;48.170;11.724;2022-07-29T00:26:48;2.33;;;2.23;;
3487;SDS011;38546;48.170;11.724;2022-07-29T00:29:37;2.60;;;2.20;;
3487;SDS011;38546;48.170;11.724;2022-07-29T00:32:27;2.43;;;2.33;;
3487;SDS011;38546;48.170;11.724;2022-07-29T00:35:16;2.50;;;2.40;;
3487;SDS011;38546;48.170;11.724;2022-07-29T00:38:24;2.40;;;2.30;;
3487;SDS011;38546;48.170;11.724;2022-07-29T00:41:14;2.63;;;2.50;;
3487;SDS011;38546;48.170;11.724;2022-07-29T00:44:04;3.27;;;2.97;;
3487;SDS011;38546;48.170;11.724;2022-07-29T00:46:53;3.13;;;2.87;;
3487;SDS011;38546;48.170;11.724;2022-07-29T00:49:43;3.10;;;2.90;;
3487;SDS011;38546;48.170;11.724;2022-07-29T00:52:32;2.90;;;2.70;;
3487;SDS011;38546;48.170;11.724;2022-07-29T00:55:24;3.57;;;2.80;;
3487;SDS011;38546;48.170;11.724;2022-07-29T00:58:14;3.03;;;2.87;;
3487;SDS011;38546;48.170;11.724;2022-07-29T01:01:03;2.77;;;2.60;;
3487;SDS011;38546;48.170;11.724;2022-07-29T01:03:52;3.23;;;3.03;;
3487;SDS011;38546;48.170;11.724;2022-07-29T01:06:42;3.10;;;3.00;;
3487;SDS011;38546;48.170;11.724;2022-07-29T01:09:32;3.23;;;3.03;;
3487;SDS011;38546;48.170;11.724;2022-07-29T01:12:25;2.83;;;2.63;;
3487;SDS011;38546;48.170;11.724;2022-07-29T01:15:17;2.83;;;2.57;;
3487;SDS011;38546;48.170;11.724;2022-07-29T01:18:11;2.87;;;2.67;;
3487;SDS011;38546;48.170;11.724;2022-07-29T01:21:15;2.97;;;2.80;;
3487;SDS011;38546;48.170;11.724;2022-07-29T01:29:48;3.20;;;2.87;;
3487;SDS011;38546;48.170;11.724;2022-07-29T01:32:42;3.03;;;2.83;;
3487;SDS011;38546;48.170;11.724;2022-07-29T01:35:39;4.60;;;3.20;;
3487;SDS011;38546;48.170;11.724;2022-07-29T01:38:30;3.23;;;3.03;;
3487;SDS011;38546;48.170;11.724;2022-07-29T01:41:20;3.20;;;3.00;;
3487;SDS011;38546;48.170;11.724;2022-07-29T01:44:13;3.43;;;2.80;;
3487;SDS011;38546;48.170;11.724;2022-07-29T01:47:11;2.77;;;2.67;;
3487;SDS011;38546;48.170;11.724;2022-07-29T01:50:06;3.50;;;3.30;;
3487;SDS011;38546;48.170;11.724;2022-07-29T01:52:59;2.90;;;2.70;;
3487;SDS011;38546;48.170;11.724;2022-07-29T01:55:51;3.17;;;2.93;;
3487;SDS011;38546;48.170;11.724;2022-07-29T01:58:42;2.80;;;2.70;;
3487;SDS011;38546;48.170;11.724;2022-07-29T02:01:34;5.57;;;3.30;;
3487;SDS011;38546;48.170;11.724;2022-07-29T02:04:26;3.87;;;3.13;;
3487;SDS011;38546;48.170;11.724;2022-07-29T02:07:20;3.60;;;3.37;;
3487;SDS011;38546;48.170;11.724;2022-07-29T02:10:11;3.80;;;3.40;;
3487;SDS011;38546;48.170;11.724;2022-07-29T02:13:02;2.80;;;2.70;;
3487;SDS011;38546;48.170;11.724;2022-07-29T02:15:53;3.60;;;3.40;;
3487;SDS011;38546;48.170;11.724;2022-07-29T02:18:44;2.93;;;2.63;;
3487;SDS011;38546;48.170;11.724;2022-07-29T02:21:35;3.57;;;3.27;;
3487;SDS011;38546;48.170;11.724;2022-07-29T02:24:26;3.40;;;3.20;;
3487;SDS011;38546;48.170;11.724;2022-07-29T02:27:17;3.07;;;2.83;;
3487;SDS011;38546;48.170;11.724;2022-07-29T02:30:08;3.80;;;3.60;;
3487;SDS011;38546;48.170;11.724;2022-07-29T02:32:59;5.30;;;3.27;;
3487;SDS011;38546;48.170;11.724;2022-07-29T02:35:50;3.20;;;2.90;;
3487;SDS011;38546;48.170;11.724;2022-07-29T02:38:41;4.03;;;3.73;;
3487;SDS011;38546;48.170;11.724;2022-07-29T02:41:43;3.83;;;3.33;;
3487;SDS011;38546;48.170;11.724;2022-07-29T02:44:36;4.10;;;3.80;;
3487;SDS011;38546;48.170;11.724;2022-07-29T02:50:39;3.57;;;3.30;;
3487;SDS011;38546;48.170;11.724;2022-07-29T02:53:38;3.20;;;2.90;;
3487;SDS011;38546;48.170;11.724;2022-07-29T02:56:30;2.97;;;2.77;;
3487;SDS011;38546;48.170;11.724;2022-07-29T02:59:25;2.33;;;2.23;;
3487;SDS011;38546;48.170;11.724;2022-07-29T03:02:16;1.97;;;1.87;;
3487;SDS011;38546;48.170;11.724;2022-07-29T03:05:11;2.60;;;2.40;;
3487;SDS011;38546;48.170;11.724;2022-07-29T03:08:06;3.67;;;2.60;;
3487;SDS011;38546;48.170;11.724;2022-07-29T03:10:59;2.83;;;2.63;;
3487;SDS011;38546;48.170;11.724;2022-07-29T03:13:50;2.20;;;2.10;;
3487;SDS011;38546;48.170;11.724;2022-07-29T03:16:40;3.40;;;2.70;;
3487;SDS011;38546;48.170;11.724;2022-07-29T03:19:30;2.80;;;2.60;;
3487;SDS011;38546;48.170;11.724;2022-07-29T03:22:20;2.50;;;2.30;;
3487;SDS011;38546;48.170;11.724;2022-07-29T03:25:13;2.67;;;2.47;;
3487;SDS011;38546;48.170;11.724;2022-07-29T03:28:05;4.97;;;2.40;;
3487;SDS011;38546;48.170;11.724;2022-07-29T03:30:54;2.40;;;2.30;;
3487;SDS011;38546;48.170;11.724;2022-07-29T03:33:44;3.00;;;2.30;;
3487;SDS011;38546;48.170;11.724;2022-07-29T03:36:33;3.33;;;2.60;;
3487;SDS011;38546;48.170;11.724;2022-07-29T03:39:24;3.43;;;3.13;;
3487;SDS011;38546;48.170;11.724;2022-07-29T03:42:19;2.70;;;2.60;;
3487;SDS011;38546;48.170;11.724;2022-07-29T03:45:12;2.73;;;2.53;;
3487;SDS011;38546;48.170;11.724;2022-07-29T03:48:08;2.80;;;2.60;;
3487;SDS011;38546;48.170;11.724;2022-07-29T03:51:01;2.40;;;2.30;;
3487;SDS011;38546;48.170;11.724;2022-07-29T03:53:51;3.73;;;2.10;;
3487;SDS011;38546;48.170;11.724;2022-07-29T03:56:42;2.33;;;2.13;;
3487;SDS011;38546;48.170;11.724;2022-07-29T03:59:36;4.53;;;2.73;;
3487;SDS011;38546;48.170;11.724;2022-07-29T04:02:26;2.87;;;2.67;;
3487;SDS011;38546;48.170;11.724;2022-07-29T04:05:16;2.83;;;2.50;;
3487;SDS011;38546;48.170;11.724;2022-07-29T04:08:07;2.60;;;2.40;;
3487;SDS011;38546;48.170;11.724;2022-07-29T04:10:57;2.83;;;2.63;;
3487;SDS011;38546;48.170;11.724;2022-07-29T04:13:46;2.80;;;2.60;;
3487;SDS011;38546;48.170;11.724;2022-07-29T04:16:35;3.33;;;2.70;;
3487;SDS011;38546;48.170;11.724;2022-07-29T04:19:25;3.13;;;2.83;;
3487;SDS011;38546;48.170;11.724;2022-07-29T04:22:15;2.60;;;2.50;;
3487;SDS011;38546;48.170;11.724;2022-07-29T04:25:04;2.73;;;2.53;;
3487;SDS011;38546;48.170;11.724;2022-07-29T04:27:53;2.93;;;2.77;;
3487;SDS011;38546;48.170;11.724;2022-07-29T04:30:52;3.70;;;3.30;;
3487;SDS011;38546;48.170;11.724;2022-07-29T04:33:41;2.87;;;2.63;;
3487;SDS011;38546;48.170;11.724;2022-07-29T04:36:30;3.00;;;2.80;;
3487;SDS011;38546;48.170;11.724;2022-07-29T04:39:20;2.67;;;2.57;;
3487;SDS011;38546;48.170;11.724;2022-07-29T04:42:09;3.07;;;2.87;;
3487;SDS011;38546;48.170;11.724;2022-07-29T04:44:58;2.50;;;2.40;;
3487;SDS011;38546;48.170;11.724;2022-07-29T04:47:47;2.60;;;2.50;;
3487;SDS011;38546;48.170;11.724;2022-07-29T04:50:38;2.87;;;2.70;;
3487;SDS011;38546;48.170;11.724;2022-07-29T04:53:28;3.10;;;2.90;;
3487;SDS011;38546;48.170;11.724;2022-07-29T04:56:18;3.43;;;2.90;;
3487;SDS011;38546;48.170;11.724;2022-07-29T04:59:07;3.47;;;3.17;;
3487;SDS011;38546;48.170;11.724;2022-07-29T05:01:56;2.70;;;2.50;;
3487;SDS011;38546;48.170;11.724;2022-07-29T05:04:46;4.03;;;3.20;;
3487;SDS011;38546;48.170;11.724;2022-07-29T05:07:35;3.53;;;3.23;;
3487;SDS011;38546;48.170;11.724;2022-07-29T05:10:24;3.70;;;3.17;;
3487;SDS011;38546;48.170;11.724;2022-07-29T05:13:13;3.60;;;3.30;;
3487;SDS011;38546;48.170;11.724;2022-07-29T05:16:03;3.20;;;3.00;;
3487;SDS011;38546;48.170;11.724;2022-07-29T05:18:53;3.80;;;3.50;;
3487;SDS011;38546;48.170;11.724;2022-07-29T05:21:44;3.80;;;2.90;;
3487;SDS011;38546;48.170;11.724;2022-07-29T05:24:33;2.50;;;2.40;;
3487;SDS011;38546;48.170;11.724;2022-07-29T05:27:23;2.60;;;2.50;;
3487;SDS011;38546;48.170;11.724;2022-07-29T05:30:12;3.00;;;2.80;;
3487;SDS011;38546;48.170;11.724;2022-07-29T05:33:01;5.80;;;2.80;;
3487;SDS011;38546;48.170;11.724;2022-07-29T05:35:51;2.50;;;2.30;;
3487;SDS011;38546;48.170;11.724;2022-07-29T05:38:40;2.97;;;2.77;;
3487;SDS011;38546;48.170;11.724;2022-07-29T05:41:31;2.40;;;2.30;;
3487;SDS011;38546;48.170;11.724;2022-07-29T05:44:21;2.50;;;2.40;;
3487;SDS011;38546;48.170;11.724;2022-07-29T05:47:10;3.00;;;2.80;;
3487;SDS011;38546;48.170;11.724;2022-07-29T05:49:59;2.50;;;2.40;;
3487;SDS011;38546;48.170;11.724;2022-07-29T05:52:49;2.63;;;2.43;;
3487;SDS011;38546;48.170;11.724;2022-07-29T05:55:39;2.60;;;2.40;;
3487;SDS011;38546;48.170;11.724;2022-07-29T05:58:28;2.80;;;2.60;;
3487;SDS011;38546;48.170;11.724;2022-07-29T06:01:18;4.50;;;2.40;;
3487;SDS011;38546;48.170;11.724;2022-07-29T06:04:07;2.77;;;2.57;;
3487;SDS011;38546;48.170;11.724;2022-07-29T06:06:56;3.67;;;2.83;;
3487;SDS011;38546;48.170;11.724;2022-07-29T06:09:46;8.33;;;3.20;;
3487;SDS011;38546;48.170;11.724;2022-07-29T06:12:35;2.70;;;2.60;;
3487;SDS011;38546;48.170;11.724;2022-07-29T06:15:26;2.77;;;2.67;;
3487;SDS011;38546;48.170;11.724;2022-07-29T06:18:15;3.10;;;2.90;;
3487;SDS011;38546;48.170;11.724;2022-07-29T06:21:08;3.07;;;2.87;;
3487;SDS011;38546;48.170;11.724;2022-07-29T06:23:58;2.83;;;2.67;;
3487;SDS011;38546;48.170;11.724;2022-07-29T06:26:48;3.57;;;2.67;;
3487;SDS011;38546;48.170;11.724;2022-07-29T06:29:38;3.30;;;3.07;;
3487;SDS011;38546;48.170;11.724;2022-07-29T06:32:27;2.60;;;2.40;;
3487;SDS011;38546;48.170;11.724;2022-07-29T06:35:17;2.97;;;2.77;;
3487;SDS011;38546;48.170;11.724;2022-07-29T06:38:06;2.90;;;2.70;;
3487;SDS011;38546;48.170;11.724;2022-07-29T06:40:56;3.23;;;3.03;;
3487;SDS011;38546;48.170;11.724;2022-07-29T06:43:49;3.13;;;2.87;;
3487;SDS011;38546;48.170;11.724;2022-07-29T06:46:40;3.00;;;2.80;;
3487;SDS011;38546;48.170;11.724;2022-07-29T06:49:29;3.20;;;3.00;;
3487;SDS011;38546;48.170;11.724;2022-07-29T06:52:19;2.90;;;2.70;;
3487;SDS011;38546;48.170;11.724;2022-07-29T06:55:09;3.20;;;2.87;;
3487;SDS011;38546;48.170;11.724;2022-07-29T06:57:58;3.20;;;2.90;;
3487;SDS011;38546;48.170;11.724;2022-07-29T07:00:47;5.80;;;3.30;;
3487;SDS011;38546;48.170;11.724;2022-07-29T07:03:37;3.47;;;3.17;;
3487;SDS011;38546;48.170;11.724;2022-07-29T07:06:26;5.07;;;2.83;;
3487;SDS011;38546;48.170;11.724;2022-07-29T07:09:16;2.60;;;2.50;;
3487;SDS011;38546;48.170;11.724;2022-07-29T07:12:05;3.70;;;3.40;;
3487;SDS011;38546;48.170;11.724;2022-07-29T07:14:55;3.50;;;3.20;;
3487;SDS011;38546;48.170;11.724;2022-07-29T07:17:44;3.83;;;3.20;;
3487;SDS011;38546;48.170;11.724;2022-07-29T07:20:34;4.00;;;3.20;;
3487;SDS011;38546;48.170;11.724;2022-07-29T07:23:24;3.30;;;3.10;;
3487;SDS011;38546;48.170;11.724;2022-07-29T07:26:14;3.40;;;3.10;;
3487;SDS011;38546;48.170;11.724;2022-07-29T07:29:03;2.57;;;2.47;;
3487;SDS011;38546;48.170;11.724;2022-07-29T07:31:52;3.67;;;3.37;;
3487;SDS011;38546;48.170;11.724;2022-07-29T07:34:42;4.13;;;2.97;;
3487;SDS011;38546;48.170;11.724;2022-07-29T07:37:33;3.33;;;3.03;;
3487;SDS011;38546;48.170;11.724;2022-07-29T07:40:23;14.77;;;3.90;;
3487;SDS011;38546;48.170;11.724;2022-07-29T07:43:13;3.53;;;3.33;;
3487;SDS011;38546;48.170;11.724;2022-07-29T07:46:01;2.33;;;2.23;;
3487;SDS011;38546;48.170;11.724;2022-07-29T07:48:51;3.37;;;3.17;;
3487;SDS011;38546;48.170;11.724;2022-07-29T07:51:40;3.03;;;2.80;;
3487;SDS011;38546;48.170;11.724;2022-07-29T07:54:32;3.17;;;2.90;;
3487;SDS011;38546;48.170;11.724;2022-07-29T07:57:21;7.10;;;3.43;;
3487;SDS011;38546;48.170;11.724;2022-07-29T08:00:10;3.17;;;2.87;;
3487;SDS011;38546;48.170;11.724;2022-07-29T08:03:01;3.80;;;3.27;;
3487;SDS011;38546;48.170;11.724;2022-07-29T08:05:51;5.07;;;3.43;;
3487;SDS011;38546;48.170;11.724;2022-07-29T08:08:42;3.30;;;3.10;;
3487;SDS011;38546;48.170;11.724;2022-07-29T08:11:32;3.40;;;3.10;;
3487;SDS011;38546;48.170;11.724;2022-07-29T08:14:21;3.33;;;2.67;;
3487;SDS011;38546;48.170;11.724;2022-07-29T08:17:10;3.60;;;2.63;;
3487;SDS011;38546;48.170;11.724;2022-07-29T08:19:59;3.87;;;2.97;;
3487;SDS011;38546;48.170;11.724;2022-07-29T08:22:49;3.60;;;3.30;;
3487;SDS011;38546;48.170;11.724;2022-07-29T08:25:39;3.77;;;3.00;;
3487;SDS011;38546;48.170;11.724;2022-07-29T08:28:28;3.00;;;2.73;;
3487;SDS011;38546;48.170;11.724;2022-07-29T08:31:19;3.47;;;2.70;;
3487;SDS011;38546;48.170;11.724;2022-07-29T08:34:09;6.57;;;3.23;;
3487;SDS011;38546;48.170;11.724;2022-07-29T08:36:58;3.60;;;3.13;;
3487;SDS011;38546;48.170;11.724;2022-07-29T08:39:48;2.90;;;2.70;;
3487;SDS011;38546;48.170;11.724;2022-07-29T08:42:37;3.40;;;3.10;;
3487;SDS011;38546;48.170;11.724;2022-07-29T08:45:28;3.17;;;2.97;;
3487;SDS011;38546;48.170;11.724;2022-07-29T08:48:19;4.40;;;3.00;;
3487;SDS011;38546;48.170;11.724;2022-07-29T08:51:14;5.33;;;3.00;;
3487;SDS011;38546;48.170;11.724;2022-07-29T08:54:10;3.87;;;3.07;;
3487;SDS011;38546;48.170;11.724;2022-07-29T08:57:05;9.27;;;3.23;;
3487;SDS011;38546;48.170;11.724;2022-07-29T08:59:55;3.53;;;3.23;;
3487;SDS011;38546;48.170;11.724;2022-07-29T09:02:50;3.60;;;3.10;;
3487;SDS011;38546;48.170;11.724;2022-07-29T09:05:45;3.70;;;3.50;;
3487;SDS011;38546;48.170;11.724;2022-07-29T09:08:36;3.50;;;3.30;;
3487;SDS011;38546;48.170;11.724;2022-07-29T09:11:25;6.40;;;4.27;;
3487;SDS011;38546;48.170;11.724;2022-07-29T09:14:16;3.90;;;3.60;;
3487;SDS011;38546;48.170;11.724;2022-07-29T09:17:06;4.80;;;2.93;;
3487;SDS011;38546;48.170;11.724;2022-07-29T09:19:56;4.90;;;3.80;;
3487;SDS011;38546;48.170;11.724;2022-07-29T09:23:06;4.60;;;3.43;;
3487;SDS011;38546;48.170;11.724;2022-07-29T09:25:56;5.87;;;4.17;;
3487;SDS011;38546;48.170;11.724;2022-07-29T09:28:54;4.50;;;4.20;;
3487;SDS011;38546;48.170;11.724;2022-07-29T09:31:45;8.47;;;4.13;;
3487;SDS011;38546;48.170;11.724;2022-07-29T09:34:37;8.13;;;4.60;;
3487;SDS011;38546;48.170;11.724;2022-07-29T09:37:27;4.97;;;4.47;;
3487;SDS011;38546;48.170;11.724;2022-07-29T09:40:26;4.73;;;4.33;;
3487;SDS011;38546;48.170;11.724;2022-07-29T09:43:17;4.60;;;3.93;;
3487;SDS011;38546;48.170;11.724;2022-07-29T09:46:10;4.30;;;3.90;;
3487;SDS011;38546;48.170;11.724;2022-07-29T09:49:10;4.50;;;4.20;;
3487;SDS011;38546;48.170;11.724;2022-07-29T09:52:06;4.90;;;4.17;;
3487;SDS011;38546;48.170;11.724;2022-07-29T09:55:07;5.90;;;4.10;;
3487;SDS011;38546;48.170;11.724;2022-07-29T09:58:17;6.43;;;4.57;;
3487;SDS011;38546;48.170;11.724;2022-07-29T10:01:09;6.77;;;4.90;;
3487;SDS011;38546;48.170;11.724;2022-07-29T10:03:59;5.50;;;5.10;;
3487;SDS011;38546;48.170;11.724;2022-07-29T10:06:55;5.60;;;4.13;;
3487;SDS011;38546;48.170;11.724;2022-07-29T10:09:54;4.23;;;3.93;;
3487;SDS011;38546;48.170;11.724;2022-07-29T10:12:52;4.80;;;4.40;;
3487;SDS011;38546;48.170;11.724;2022-07-29T10:15:54;5.73;;;5.17;;
3487;SDS011;38546;48.170;11.724;2022-07-29T10:18:44;6.17;;;4.80;;
3487;SDS011;38546;48.170;11.724;2022-07-29T10:21:35;4.70;;;4.30;;
3487;SDS011;38546;48.170;11.724;2022-07-29T10:24:26;4.80;;;4.33;;
3487;SDS011;38546;48.170;11.724;2022-07-29T10:27:17;5.00;;;4.60;;
3487;SDS011;38546;48.170;11.724;2022-07-29T10:30:07;7.40;;;5.30;;
3487;SDS011;38546;48.170;11.724;2022-07-29T10:33:07;5.57;;;5.07;;
3487;SDS011;38546;48.170;11.724;2022-07-29T10:44:06;5.23;;;4.83;;
3487;SDS011;38546;48.170;11.724;2022-07-29T10:47:03;6.10;;;4.50;;
3487;SDS011;38546;48.170;11.724;2022-07-29T10:49:59;11.00;;;5.80;;
3487;SDS011;38546;48.170;11.724;2022-07-29T10:52:54;6.67;;;5.43;;
3487;SDS011;38546;48.170;11.724;2022-07-29T10:55:47;5.40;;;4.57;;
3487;SDS011;38546;48.170;11.724;2022-07-29T10:58:38;6.53;;;5.17;;
3487;SDS011;38546;48.170;11.724;2022-07-29T11:01:28;5.97;;;5.57;;
3487;SDS011;38546;48.170;11.724;2022-07-29T11:20:56;5.50;;;4.83;;
3487;SDS011;38546;48.170;11.724;2022-07-29T11:23:46;9.63;;;5.67;;
3487;SDS011;38546;48.170;11.724;2022-07-29T11:26:35;8.77;;;5.73;;
3487;SDS011;38546;48.170;11.724;2022-07-29T11:29:25;6.07;;;5.47;;
3487;SDS011;38546;48.170;11.724;2022-07-29T11:32:16;8.00;;;5.90;;
3487;SDS011;38546;48.170;11.724;2022-07-29T11:35:18;6.90;;;5.40;;
3487;SDS011;38546;48.170;11.724;2022-07-29T11:44:14;4.83;;;4.43;;
3487;SDS011;38546;48.170;11.724;2022-07-29T11:47:04;5.07;;;4.40;;
3487;SDS011;38546;48.170;11.724;2022-07-29T11:49:59;5.30;;;4.30;;
3487;SDS011;38546;48.170;11.724;2022-07-29T11:52:49;5.40;;;4.07;;
3487;SDS011;38546;48.170;11.724;2022-07-29T11:55:39;6.53;;;4.50;;
3487;SDS011;38546;48.170;11.724;2022-07-29T11:58:29;4.90;;;4.50;;
3487;SDS011;38546;48.170;11.724;2022-07-29T12:01:20;4.67;;;4.27;;
3487;SDS011;38546;48.170;11.724;2022-07-29T12:04:12;5.20;;;4.70;;
3487;SDS011;38546;48.170;11.724;2022-07-29T12:07:02;4.77;;;4.33;;
3487;SDS011;38546;48.170;11.724;2022-07-29T12:09:51;5.23;;;4.50;;
3487;SDS011;38546;48.170;11.724;2022-07-29T12:12:41;5.10;;;3.60;;
3487;SDS011;38546;48.170;11.724;2022-07-29T12:15:31;6.63;;;4.03;;
3487;SDS011;38546;48.170;11.724;2022-07-29T12:18:20;4.40;;;4.00;;
3487;SDS011;38546;48.170;11.724;2022-07-29T12:21:10;5.90;;;4.67;;
3487;SDS011;38546;48.170;11.724;2022-07-29T12:23:59;4.57;;;4.17;;
3487;SDS011;38546;48.170;11.724;2022-07-29T12:26:49;5.03;;;4.00;;
3487;SDS011;38546;48.170;11.724;2022-07-29T12:29:55;4.23;;;3.93;;
3487;SDS011;38546;48.170;11.724;2022-07-29T12:32:56;4.33;;;4.00;;
3487;SDS011;38546;48.170;11.724;2022-07-29T12:35:46;4.20;;;3.90;;
3487;SDS011;38546;48.170;11.724;2022-07-29T12:38:42;4.60;;;4.30;;
3487;SDS011;38546;48.170;11.724;2022-07-29T12:41:32;4.17;;;3.90;;
3487;SDS011;38546;48.170;11.724;2022-07-29T12:44:21;6.03;;;4.70;;
3487;SDS011;38546;48.170;11.724;2022-07-29T12:47:10;6.23;;;4.20;;
3487;SDS011;38546;48.170;11.724;2022-07-29T12:50:09;4.40;;;3.97;;
3487;SDS011;38546;48.170;11.724;2022-07-29T12:53:10;4.93;;;4.43;;
3487;SDS011;38546;48.170;11.724;2022-07-29T12:56:02;4.53;;;4.13;;
3487;SDS011;38546;48.170;11.724;2022-07-29T12:58:52;4.63;;;4.23;;
3487;SDS011;38546;48.170;11.724;2022-07-29T13:01:43;6.43;;;3.80;;
3487;SDS011;38546;48.170;11.724;2022-07-29T13:04:35;5.07;;;4.67;;
3487;SDS011;38546;48.170;11.724;2022-07-29T13:07:25;4.90;;;4.50;;
3487;SDS011;38546;48.170;11.724;2022-07-29T13:10:19;5.07;;;4.57;;
3487;SDS011;38546;48.170;11.724;2022-07-29T13:16:07;7.00;;;4.70;;
3487;SDS011;38546;48.170;11.724;2022-07-29T13:19:08;4.80;;;4.40;;
3487;SDS011;38546;48.170;11.724;2022-07-29T13:21:59;5.40;;;3.97;;
3487;SDS011;38546;48.170;11.724;2022-07-29T13:24:57;5.80;;;5.30;;
3487;SDS011;38546;48.170;11.724;2022-07-29T13:27:51;5.20;;;4.27;;
3487;SDS011;38546;48.170;11.724;2022-07-29T13:30:42;6.50;;;4.10;;
3487;SDS011;38546;48.170;11.724;2022-07-29T13:33:32;6.90;;;4.60;;
3487;SDS011;38546;48.170;11.724;2022-07-29T13:36:21;8.13;;;4.40;;
3487;SDS011;38546;48.170;11.724;2022-07-29T13:39:11;5.30;;;4.57;;
3487;SDS011;38546;48.170;11.724;2022-07-29T13:42:01;4.27;;;3.90;;
3487;SDS011;38546;48.170;11.724;2022-07-29T13:44:50;4.70;;;4.20;;
3487;SDS011;38546;48.170;11.724;2022-07-29T13:47:40;4.87;;;4.47;;
3487;SDS011;38546;48.170;11.724;2022-07-29T13:50:29;6.60;;;4.50;;
3487;SDS011;38546;48.170;11.724;2022-07-29T13:53:19;5.30;;;4.10;;
3487;SDS011;38546;48.170;11.724;2022-07-29T13:56:08;9.33;;;3.87;;
3487;SDS011;38546;48.170;11.724;2022-07-29T13:58:57;4.03;;;3.63;;
3487;SDS011;38546;48.170;11.724;2022-07-29T14:01:46;7.40;;;4.00;;
3487;SDS011;38546;48.170;11.724;2022-07-29T14:04:36;4.47;;;3.87;;
3487;SDS011;38546;48.170;11.724;2022-07-29T14:07:26;4.07;;;3.60;;
3487;SDS011;38546;48.170;11.724;2022-07-29T14:10:16;5.30;;;4.23;;
3487;SDS011;38546;48.170;11.724;2022-07-29T14:13:06;5.33;;;3.53;;
3487;SDS011;38546;48.170;11.724;2022-07-29T14:15:55;9.33;;;4.40;;
3487;SDS011;38546;48.170;11.724;2022-07-29T14:18:44;4.23;;;3.93;;
3487;SDS011;38546;48.170;11.724;2022-07-29T14:21:34;4.63;;;4.23;;
3487;SDS011;38546;48.170;11.724;2022-07-29T14:24:24;4.07;;;3.57;;
3487;SDS011;38546;48.170;11.724;2022-07-29T14:27:13;4.50;;;4.10;;
3487;SDS011;38546;48.170;11.724;2022-07-29T14:30:02;5.33;;;3.63;;
3487;SDS011;38546;48.170;11.724;2022-07-29T14:32:53;4.40;;;4.00;;
3487;SDS011;38546;48.170;11.724;2022-07-29T14:35:43;4.87;;;4.37;;
3487;SDS011;38546;48.170;11.724;2022-07-29T14:38:33;6.70;;;4.43;;
3487;SDS011;38546;48.170;11.724;2022-07-29T14:41:23;4.10;;;3.80;;
3487;SDS011;38546;48.170;11.724;2022-07-29T14:44:12;5.33;;;4.83;;
3487;SDS011;38546;48.170;11.724;2022-07-29T14:47:01;9.13;;;5.03;;
3487;SDS011;38546;48.170;11.724;2022-07-29T14:49:51;6.30;;;4.23;;
3487;SDS011;38546;48.170;11.724;2022-07-29T14:52:40;5.53;;;5.13;;
3487;SDS011;38546;48.170;11.724;2022-07-29T14:55:29;4.53;;;4.13;;
3487;SDS011;38546;48.170;11.724;2022-07-29T14:58:19;4.40;;;4.00;;
3487;SDS011;38546;48.170;11.724;2022-07-29T15:01:11;6.43;;;4.33;;
3487;SDS011;38546;48.170;11.724;2022-07-29T15:04:01;4.30;;;3.90;;
3487;SDS011;38546;48.170;11.724;2022-07-29T15:06:50;4.33;;;4.03;;
3487;SDS011;38546;48.170;11.724;2022-07-29T15:09:40;4.53;;;4.13;;
3487;SDS011;38546;48.170;11.724;2022-07-29T15:12:29;4.37;;;3.97;;
3487;SDS011;38546;48.170;11.724;2022-07-29T15:15:19;6.03;;;4.80;;
3487;SDS011;38546;48.170;11.724;2022-07-29T15:18:09;4.90;;;4.23;;
3487;SDS011;38546;48.170;11.724;2022-07-29T15:20:58;3.80;;;3.60;;
3487;SDS011;38546;48.170;11.724;2022-07-29T15:23:49;5.90;;;4.20;;
3487;SDS011;38546;48.170;11.724;2022-07-29T15:26:39;8.10;;;4.00;;
3487;SDS011;38546;48.170;11.724;2022-07-29T15:29:31;5.20;;;4.57;;
3487;SDS011;38546;48.170;11.724;2022-07-29T15:32:21;5.80;;;3.97;;
3487;SDS011;38546;48.170;11.724;2022-07-29T15:35:11;11.43;;;4.80;;
3487;SDS011;38546;48.170;11.724;2022-07-29T15:38:00;5.73;;;4.50;;
3487;SDS011;38546;48.170;11.724;2022-07-29T15:40:50;4.33;;;3.93;;
3487;SDS011;38546;48.170;11.724;2022-07-29T15:43:42;4.90;;;4.50;;
3487;SDS011;38546;48.170;11.724;2022-07-29T15:46:35;4.60;;;4.20;;
3487;SDS011;38546;48.170;11.724;2022-07-29T15:49:43;7.40;;;4.50;;
3487;SDS011;38546;48.170;11.724;2022-07-29T15:52:33;5.30;;;4.90;;
3487;SDS011;38546;48.170;11.724;2022-07-29T15:55:22;5.93;;;4.87;;
3487;SDS011;38546;48.170;11.724;2022-07-29T15:58:11;6.30;;;4.83;;
3487;SDS011;38546;48.170;11.724;2022-07-29T16:01:01;8.50;;;4.87;;
3487;SDS011;38546;48.170;11.724;2022-07-29T16:03:50;5.43;;;5.10;;
3487;SDS011;38546;48.170;11.724;2022-07-29T16:06:40;6.80;;;5.40;;
3487;SDS011;38546;48.170;11.724;2022-07-29T16:09:29;6.13;;;5.30;;
3487;SDS011;38546;48.170;11.724;2022-07-29T16:12:19;10.93;;;5.50;;
3487;SDS011;38546;48.170;11.724;2022-07-29T16:15:09;5.60;;;5.10;;
3487;SDS011;38546;48.170;11.724;2022-07-29T16:17:58;5.60;;;5.17;;
3487;SDS011;38546;48.170;11.724;2022-07-29T16:20:48;9.10;;;6.27;;
3487;SDS011;38546;48.170;11.724;2022-07-29T16:23:40;6.07;;;5.57;;
3487;SDS011;38546;48.170;11.724;2022-07-29T16:26:30;5.93;;;5.33;;
3487;SDS011;38546;48.170;11.724;2022-07-29T16:29:20;6.90;;;5.60;;
3487;SDS011;38546;48.170;11.724;2022-07-29T16:32:09;5.33;;;4.93;;
3487;SDS011;38546;48.170;11.724;2022-07-29T16:34:58;6.20;;;5.40;;
3487;SDS011;38546;48.170;11.724;2022-07-29T16:37:49;7.60;;;6.13;;
3487;SDS011;38546;48.170;11.724;2022-07-29T16:40:38;6.57;;;5.87;;
3487;SDS011;38546;48.170;11.724;2022-07-29T16:43:27;7.43;;;6.20;;
3487;SDS011;38546;48.170;11.724;2022-07-29T16:46:16;6.50;;;5.60;;
3487;SDS011;38546;48.170;11.724;2022-07-29T16:49:05;7.27;;;6.67;;
3487;SDS011;38546;48.170;11.724;2022-07-29T16:51:54;6.53;;;5.93;;
3487;SDS011;38546;48.170;11.724;2022-07-29T16:54:43;7.10;;;6.37;;
3487;SDS011;38546;48.170;11.724;2022-07-29T16:57:32;6.23;;;5.63;;
3487;SDS011;38546;48.170;11.724;2022-07-29T17:00:21;9.40;;;5.70;;
3487;SDS011;38546;48.170;11.724;2022-07-29T17:03:11;7.07;;;5.53;;
3487;SDS011;38546;48.170;11.724;2022-07-29T17:05:59;8.30;;;5.70;;
3487;SDS011;38546;48.170;11.724;2022-07-29T17:08:48;13.00;;;5.80;;
3487;SDS011;38546;48.170;11.724;2022-07-29T17:11:37;7.37;;;5.17;;
3487;SDS011;38546;48.170;11.724;2022-07-29T17:14:29;7.83;;;6.30;;
3487;SDS011;38546;48.170;11.724;2022-07-29T17:17:18;8.10;;;5.70;;
3487;SDS011;38546;48.170;11.724;2022-07-29T17:20:07;5.10;;;4.67;;
3487;SDS011;38546;48.170;11.724;2022-07-29T17:22:57;7.03;;;4.60;;
3487;SDS011;38546;48.170;11.724;2022-07-29T17:25:46;6.13;;;5.47;;
3487;SDS011;38546;48.170;11.724;2022-07-29T17:28:35;6.60;;;5.37;;
3487;SDS011;38546;48.170;11.724;2022-07-29T17:31:24;5.40;;;5.00;;
3487;SDS011;38546;48.170;11.724;2022-07-29T17:34:13;6.93;;;5.73;;
3487;SDS011;38546;48.170;11.724;2022-07-29T17:37:02;11.87;;;5.40;;
3487;SDS011;38546;48.170;11.724;2022-07-29T17:39:53;7.07;;;5.50;;
3487;SDS011;38546;48.170;11.724;2022-07-29T17:42:43;5.30;;;4.80;;
3487;SDS011;38546;48.170;11.724;2022-07-29T17:45:31;10.23;;;5.30;;
3487;SDS011;38546;48.170;11.724;2022-07-29T17:48:20;5.43;;;4.93;;
3487;SDS011;38546;48.170;11.724;2022-07-29T17:51:09;8.77;;;4.87;;
3487;SDS011;38546;48.170;11.724;2022-07-29T17:53:59;5.20;;;4.70;;